createdAt,value
2022-12-04T00:00:43.987Z,63.67
2022-12-04T00:01:53.624Z,62.31
2022-12-04T00:02:55.447Z,61.20
2022-12-04T00:03:59.817Z,60.37
2022-12-04T00:05:03.788Z,59.54
2022-12-04T00:06:15.008Z,58.22
2022-12-04T00:07:17.208Z,57.12
2022-12-04T00:08:18.955Z,57.32
2022-12-04T00:09:20.715Z,58.31
2022-12-04T00:10:22.471Z,59.53
2022-12-04T00:11:27.883Z,60.57
2022-12-04T00:12:29.649Z,61.63
2022-12-04T00:13:32.223Z,62.93
2022-12-04T00:14:34.496Z,64.70
2022-12-04T00:15:41.636Z,65.46
2022-12-04T00:16:43.461Z,65.05
2022-12-04T00:17:48.580Z,64.00
2022-12-04T00:18:50.597Z,62.75
2022-12-04T00:19:52.579Z,61.68
2022-12-04T00:20:54.722Z,60.71
2022-12-04T00:21:56.473Z,59.75
2022-12-04T00:22:58.205Z,58.57
2022-12-04T00:24:00.029Z,57.32
2022-12-04T00:25:01.804Z,57.24
2022-12-04T00:26:09.275Z,57.97
2022-12-04T00:27:10.995Z,59.17
2022-12-04T00:28:13.536Z,60.09
2022-12-04T00:29:15.332Z,61.41
2022-12-04T00:30:17.212Z,62.35
2022-12-04T00:31:22.505Z,63.57
2022-12-04T00:32:24.334Z,65.46
2022-12-04T00:33:26.700Z,65.93
2022-12-04T00:34:28.503Z,65.45
2022-12-04T00:35:30.255Z,64.30
2022-12-04T00:36:32.145Z,63.09
2022-12-04T00:37:34.289Z,61.93
2022-12-04T00:38:37.687Z,60.81
2022-12-04T00:39:39.427Z,59.98
2022-12-04T00:40:49.307Z,59.23
2022-12-04T00:41:51.001Z,57.77
2022-12-04T00:42:53.162Z,57.11
2022-12-04T00:43:55.125Z,57.69
2022-12-04T00:44:56.874Z,58.75
2022-12-04T00:45:59.010Z,59.84
2022-12-04T00:47:00.848Z,61.01
2022-12-04T00:48:02.586Z,61.96
2022-12-04T00:49:04.425Z,63.11
2022-12-04T00:50:07.318Z,64.93
2022-12-04T00:51:12.459Z,65.58
2022-12-04T00:52:14.249Z,65.18
2022-12-04T00:53:16.333Z,64.13
2022-12-04T00:54:18.142Z,63.06
2022-12-04T00:55:19.981Z,62.13
2022-12-04T00:56:24.929Z,61.22
2022-12-04T00:57:26.754Z,60.07
2022-12-04T00:58:28.462Z,59.32
2022-12-04T00:59:30.196Z,58.04
2022-12-04T01:00:32.082Z,57.29
2022-12-04T01:01:33.890Z,57.58
2022-12-04T01:02:35.816Z,58.59
2022-12-04T01:03:38.243Z,59.72
2022-12-04T01:04:39.955Z,60.66
2022-12-04T01:05:44.946Z,61.79
2022-12-04T01:06:47.352Z,63.30
2022-12-04T01:07:49.299Z,64.94
2022-12-04T01:08:53.207Z,65.52
2022-12-04T01:09:55.301Z,65.09
2022-12-04T01:10:57.542Z,64.18
2022-12-04T01:11:59.615Z,62.99
2022-12-04T01:13:01.471Z,61.81
2022-12-04T01:14:03.441Z,60.89
2022-12-04T01:15:06.010Z,59.97
2022-12-04T01:16:07.845Z,59.04
2022-12-04T01:17:09.611Z,57.87
2022-12-04T01:18:12.418Z,57.30
2022-12-04T01:19:14.207Z,57.82
2022-12-04T01:20:17.361Z,58.88
2022-12-04T01:21:19.892Z,59.77
2022-12-04T01:22:21.624Z,61.37
2022-12-04T01:23:23.343Z,62.70
2022-12-04T01:24:25.145Z,64.02
2022-12-04T01:25:27.034Z,65.38
2022-12-04T01:26:29.242Z,65.38
2022-12-04T01:27:31.031Z,64.56
2022-12-04T01:28:32.872Z,63.54
2022-12-04T01:29:34.808Z,62.48
2022-12-04T01:30:36.644Z,61.23
2022-12-04T01:31:38.519Z,60.33
2022-12-04T01:32:40.327Z,59.68
2022-12-04T01:33:42.801Z,58.57
2022-12-04T01:34:44.558Z,57.28
2022-12-04T01:35:53.588Z,57.34
2022-12-04T01:36:55.345Z,58.19
2022-12-04T01:37:57.070Z,59.13
2022-12-04T01:38:58.903Z,60.27
2022-12-04T01:40:00.756Z,61.31
2022-12-04T01:41:02.754Z,62.38
2022-12-04T01:42:05.125Z,63.49
2022-12-04T01:43:09.741Z,65.38
2022-12-04T01:44:21.812Z,65.96
2022-12-04T01:45:37.846Z,65.33
2022-12-04T01:46:41.409Z,63.91
2022-12-04T01:47:43.195Z,62.97
2022-12-04T01:48:52.564Z,61.80
2022-12-04T01:49:54.717Z,60.84
2022-12-04T01:51:24.650Z,60.07
2022-12-04T01:52:26.742Z,58.64
2022-12-04T01:53:30.692Z,57.38
2022-12-04T01:54:37.442Z,57.22
2022-12-04T01:55:39.401Z,57.95
2022-12-04T01:56:49.031Z,59.25
2022-12-04T01:57:50.946Z,60.35
2022-12-04T01:58:58.009Z,61.60
2022-12-04T02:00:07.435Z,62.63
2022-12-04T02:01:10.330Z,64.87
2022-12-04T02:02:16.128Z,66.04
2022-12-04T02:03:18.201Z,65.79
2022-12-04T02:04:20.730Z,64.84
2022-12-04T02:05:23.100Z,63.71
2022-12-04T02:06:24.876Z,62.76
2022-12-04T02:07:27.627Z,61.72
2022-12-04T02:08:30.767Z,60.87
2022-12-04T02:09:34.823Z,60.08
2022-12-04T02:10:46.587Z,59.11
2022-12-04T02:12:22.655Z,57.69
2022-12-04T02:13:36.605Z,57.60
2022-12-04T02:14:48.460Z,58.79
2022-12-04T02:16:08.255Z,60.15
2022-12-04T02:17:27.638Z,61.41
2022-12-04T02:18:46.449Z,62.03
2022-12-04T02:20:09.711Z,64.66
2022-12-04T02:21:32.108Z,66.39
2022-12-04T02:23:03.631Z,66.03
2022-12-04T02:24:22.558Z,64.50
2022-12-04T02:25:43.037Z,63.08
2022-12-04T02:27:01.251Z,61.62
2022-12-04T02:28:23.018Z,60.40
2022-12-04T02:29:39.512Z,59.66
2022-12-04T02:30:44.291Z,58.55
2022-12-04T02:31:56.371Z,57.31
2022-12-04T02:33:05.543Z,57.51
2022-12-04T02:34:16.437Z,58.50
2022-12-04T02:35:34.446Z,59.61
2022-12-04T02:36:49.101Z,60.98
2022-12-04T02:38:00.316Z,61.71
2022-12-04T02:39:15.648Z,64.01
2022-12-04T02:40:35.850Z,65.91
2022-12-04T02:41:49.611Z,65.99
2022-12-04T02:43:03.550Z,65.01
2022-12-04T02:44:25.930Z,63.60
2022-12-04T02:45:47.203Z,62.08
2022-12-04T02:46:56.010Z,60.89
2022-12-04T02:48:03.105Z,60.04
2022-12-04T02:49:12.081Z,59.45
2022-12-04T02:50:18.834Z,58.10
2022-12-04T02:51:27.142Z,57.26
2022-12-04T02:52:41.768Z,57.71
2022-12-04T02:53:50.771Z,59.01
2022-12-04T02:55:04.107Z,60.03
2022-12-04T02:56:14.442Z,61.60
2022-12-04T02:57:27.002Z,62.60
2022-12-04T02:58:34.644Z,64.64
2022-12-04T02:59:42.294Z,65.61
2022-12-04T03:00:48.017Z,65.14
2022-12-04T03:01:57.484Z,64.18
2022-12-04T03:03:06.496Z,62.87
2022-12-04T03:04:16.773Z,61.56
2022-12-04T03:05:24.519Z,60.66
2022-12-04T03:06:31.927Z,59.74
2022-12-04T03:07:45.270Z,58.77
2022-12-04T03:08:57.109Z,57.32
2022-12-04T03:10:13.582Z,57.33
2022-12-04T03:11:15.870Z,58.57
2022-12-04T03:12:34.875Z,59.87
2022-12-04T03:13:44.840Z,61.41
2022-12-04T03:15:16.279Z,62.54
2022-12-04T03:16:24.181Z,64.85
2022-12-04T03:17:36.449Z,65.34
2022-12-04T03:18:42.280Z,64.62
2022-12-04T03:19:50.516Z,63.52
2022-12-04T03:21:03.007Z,62.29
2022-12-04T03:22:14.251Z,61.00
2022-12-04T03:23:23.863Z,59.91
2022-12-04T03:24:40.590Z,58.93
2022-12-04T03:25:54.628Z,57.51
2022-12-04T03:27:05.628Z,57.47
2022-12-04T03:28:22.491Z,58.33
2022-12-04T03:29:49.957Z,59.69
2022-12-04T03:31:01.115Z,61.59
2022-12-04T03:32:39.404Z,62.90
2022-12-04T03:33:47.643Z,65.57
2022-12-04T03:35:05.102Z,65.83
2022-12-04T03:36:27.157Z,64.98
2022-12-04T03:37:55.070Z,63.59
2022-12-04T03:39:18.191Z,61.88
2022-12-04T03:40:25.717Z,60.60
2022-12-04T03:42:17.851Z,59.79
2022-12-04T03:43:40.353Z,57.74
2022-12-04T03:44:58.333Z,57.40
2022-12-04T03:46:24.595Z,58.50
2022-12-04T03:47:37.216Z,59.73
2022-12-04T03:48:45.283Z,61.05
2022-12-04T03:50:02.627Z,62.61
2022-12-04T03:51:14.925Z,64.84
2022-12-04T03:52:47.745Z,65.88
2022-12-04T03:54:05.208Z,65.11
2022-12-04T03:55:41.595Z,63.79
2022-12-04T03:56:51.708Z,61.96
2022-12-04T03:58:00.012Z,61.03
2022-12-04T03:59:16.382Z,60.06
2022-12-04T04:00:21.920Z,59.08
2022-12-04T04:01:32.569Z,57.69
2022-12-04T04:02:47.487Z,57.24
2022-12-04T04:03:56.246Z,58.17
2022-12-04T04:05:02.928Z,59.61
2022-12-04T04:06:13.561Z,60.72
2022-12-04T04:07:35.270Z,61.92
2022-12-04T04:08:45.769Z,64.07
2022-12-04T04:09:54.871Z,65.50
2022-12-04T04:11:13.019Z,65.50
2022-12-04T04:12:20.903Z,64.35
2022-12-04T04:13:56.751Z,63.14
2022-12-04T04:15:34.448Z,61.40
2022-12-04T04:17:02.036Z,60.06
2022-12-04T04:18:22.478Z,59.09
2022-12-04T04:19:48.942Z,57.37
2022-12-04T04:21:17.939Z,57.54
2022-12-04T04:22:42.511Z,58.79
2022-12-04T04:24:08.643Z,60.45
2022-12-04T04:25:15.773Z,61.79
2022-12-04T04:26:18.542Z,63.02
2022-12-04T04:27:20.311Z,64.88
2022-12-04T04:28:35.210Z,65.88
2022-12-04T04:29:38.828Z,65.42
2022-12-04T04:30:41.012Z,64.32
2022-12-04T04:31:56.186Z,63.11
2022-12-04T04:33:13.408Z,61.90
2022-12-04T04:34:41.884Z,60.76
2022-12-04T04:36:22.544Z,59.66
2022-12-04T04:37:42.376Z,57.86
2022-12-04T04:38:56.754Z,57.30
2022-12-04T04:40:33.077Z,58.22
2022-12-04T04:41:46.750Z,60.14
2022-12-04T04:43:06.962Z,61.48
2022-12-04T04:44:16.172Z,62.82
2022-12-04T04:45:34.019Z,64.78
2022-12-04T04:46:44.581Z,65.75
2022-12-04T04:48:13.664Z,65.25
2022-12-04T04:49:19.371Z,63.59
2022-12-04T04:50:23.100Z,62.40
2022-12-04T04:51:28.120Z,61.43
2022-12-04T04:52:31.912Z,60.60
2022-12-04T04:53:41.737Z,60.11
2022-12-04T04:54:45.023Z,58.82
2022-12-04T04:55:48.445Z,57.46
2022-12-04T04:56:50.246Z,57.21
2022-12-04T04:57:52.010Z,58.07
2022-12-04T04:58:53.778Z,58.82
2022-12-04T04:59:55.789Z,60.27
2022-12-04T05:01:05.369Z,61.34
2022-12-04T05:02:07.337Z,62.21
2022-12-04T05:03:10.184Z,64.16
2022-12-04T05:04:12.015Z,65.83
2022-12-04T05:05:14.129Z,66.02
2022-12-04T05:06:15.923Z,65.38
2022-12-04T05:07:17.723Z,64.22
2022-12-04T05:08:19.606Z,63.02
2022-12-04T05:09:21.417Z,62.00
2022-12-04T05:10:24.040Z,60.97
2022-12-04T05:11:25.861Z,60.56
2022-12-04T05:12:27.745Z,59.71
2022-12-04T05:13:30.991Z,58.63
2022-12-04T05:14:32.718Z,57.44
2022-12-04T05:15:34.561Z,57.60
2022-12-04T05:16:38.804Z,58.46
2022-12-04T05:17:40.677Z,59.24
2022-12-04T05:19:06.063Z,60.52
2022-12-04T05:20:08.230Z,62.38
2022-12-04T05:21:19.471Z,63.80
2022-12-04T05:22:32.813Z,65.19
2022-12-04T05:23:34.999Z,65.22
2022-12-04T05:24:36.743Z,64.36
2022-12-04T05:25:38.500Z,63.34
2022-12-04T05:26:40.234Z,62.37
2022-12-04T05:27:42.020Z,61.55
2022-12-04T05:28:43.787Z,60.82
2022-12-04T05:29:45.564Z,60.05
2022-12-04T05:30:55.208Z,59.39
2022-12-04T05:31:57.056Z,57.84
2022-12-04T05:32:58.851Z,57.12
2022-12-04T05:34:00.641Z,57.51
2022-12-04T05:35:07.710Z,58.52
2022-12-04T05:36:13.425Z,60.11
2022-12-04T05:37:15.243Z,61.14
2022-12-04T05:38:16.962Z,62.35
2022-12-04T05:39:19.105Z,63.73
2022-12-04T05:40:21.107Z,65.24
2022-12-04T05:41:23.193Z,65.53
2022-12-04T05:42:25.045Z,64.88
2022-12-04T05:43:27.583Z,63.91
2022-12-04T05:44:29.429Z,62.73
2022-12-04T05:45:31.183Z,61.70
2022-12-04T05:46:32.976Z,60.95
2022-12-04T05:47:39.976Z,60.06
2022-12-04T05:48:41.795Z,59.17
2022-12-04T05:49:43.579Z,57.87
2022-12-04T05:50:45.276Z,57.38
2022-12-04T05:51:47.006Z,57.81
2022-12-04T05:52:48.746Z,58.73
2022-12-04T05:53:51.937Z,59.78
2022-12-04T05:54:53.665Z,60.95
2022-12-04T05:56:00.928Z,62.49
2022-12-04T05:57:02.760Z,64.14
2022-12-04T05:58:04.684Z,65.21
2022-12-04T05:59:06.612Z,65.27
2022-12-04T06:00:08.927Z,64.53
2022-12-04T06:01:17.825Z,63.45
2022-12-04T06:02:19.695Z,62.36
2022-12-04T06:03:22.765Z,61.34
2022-12-04T06:04:24.844Z,60.61
2022-12-04T06:05:26.688Z,59.81
2022-12-04T06:06:28.464Z,59.10
2022-12-04T06:07:30.220Z,57.80
2022-12-04T06:08:32.257Z,57.24
2022-12-04T06:09:34.083Z,57.68
2022-12-04T06:10:35.968Z,58.51
2022-12-04T06:11:40.866Z,59.89
2022-12-04T06:12:43.041Z,61.43
2022-12-04T06:13:46.096Z,62.58
2022-12-04T06:14:47.869Z,64.41
2022-12-04T06:15:49.613Z,65.66
2022-12-04T06:16:51.434Z,65.82
2022-12-04T06:17:53.291Z,65.12
2022-12-04T06:18:58.486Z,64.00
2022-12-04T06:20:00.727Z,62.86
2022-12-04T06:21:02.788Z,61.89
2022-12-04T06:22:04.690Z,61.04
2022-12-04T06:23:06.481Z,60.50
2022-12-04T06:24:13.304Z,59.73
2022-12-04T06:25:15.118Z,58.43
2022-12-04T06:26:17.020Z,57.36
2022-12-04T06:27:28.049Z,57.57
2022-12-04T06:28:31.049Z,58.62
2022-12-04T06:29:33.426Z,59.53
2022-12-04T06:30:35.240Z,60.59
2022-12-04T06:31:38.270Z,61.85
2022-12-04T06:32:40.113Z,62.84
2022-12-04T06:33:42.591Z,64.72
2022-12-04T06:34:44.423Z,65.72
2022-12-04T06:35:46.439Z,65.58
2022-12-04T06:36:48.280Z,64.80
2022-12-04T06:37:50.039Z,63.80
2022-12-04T06:38:52.430Z,62.69
2022-12-04T06:39:54.757Z,61.57
2022-12-04T06:40:57.183Z,60.87
2022-12-04T06:41:58.925Z,60.18
2022-12-04T06:43:00.659Z,59.45
2022-12-04T06:44:02.751Z,58.15
2022-12-04T06:45:05.318Z,57.26
2022-12-04T06:46:25.705Z,57.61
2022-12-04T06:47:27.534Z,58.79
2022-12-04T06:48:30.249Z,59.94
2022-12-04T06:49:32.060Z,61.04
2022-12-04T06:50:33.784Z,62.26
2022-12-04T06:51:37.431Z,63.70
2022-12-04T06:52:39.285Z,64.97
2022-12-04T06:53:42.594Z,65.60
2022-12-04T06:54:44.347Z,65.22
2022-12-04T06:55:48.908Z,64.47
2022-12-04T06:56:50.635Z,63.28
2022-12-04T06:57:52.511Z,62.30
2022-12-04T06:58:56.670Z,61.55
2022-12-04T06:59:58.632Z,60.56
2022-12-04T07:01:10.184Z,59.91
2022-12-04T07:02:12.119Z,59.36
2022-12-04T07:03:14.120Z,58.05
2022-12-04T07:04:15.955Z,57.23
2022-12-04T07:05:17.679Z,57.69
2022-12-04T07:06:21.031Z,58.58
2022-12-04T07:07:23.398Z,59.35
2022-12-04T07:08:25.143Z,60.68
2022-12-04T07:09:26.890Z,61.76
2022-12-04T07:10:28.666Z,63.04
2022-12-04T07:11:30.979Z,65.03
2022-12-04T07:12:32.988Z,65.89
2022-12-04T07:13:35.048Z,65.55
2022-12-04T07:14:36.800Z,64.58
2022-12-04T07:15:38.702Z,63.48
2022-12-04T07:16:42.671Z,62.55
2022-12-04T07:17:44.766Z,61.69
2022-12-04T07:18:50.333Z,60.94
2022-12-04T07:19:52.190Z,59.94
2022-12-04T07:20:53.917Z,59.46
2022-12-04T07:21:55.688Z,58.54
2022-12-04T07:23:00.262Z,57.41
2022-12-04T07:24:05.228Z,57.64
2022-12-04T07:25:07.481Z,58.59
2022-12-04T07:26:12.123Z,59.69
2022-12-04T07:27:13.933Z,60.36
2022-12-04T07:28:15.993Z,61.30
2022-12-04T07:29:17.810Z,62.25
2022-12-04T07:30:19.633Z,64.44
2022-12-04T07:31:24.369Z,66.00
2022-12-04T07:32:26.166Z,66.35
2022-12-04T07:33:27.942Z,65.94
2022-12-04T07:34:30.125Z,65.00
2022-12-04T07:35:32.135Z,64.09
2022-12-04T07:36:34.045Z,62.82
2022-12-04T07:37:36.745Z,61.58
2022-12-04T07:38:38.526Z,60.66
2022-12-04T07:39:40.401Z,60.08
2022-12-04T07:40:42.129Z,59.36
2022-12-04T07:41:43.835Z,58.41
2022-12-04T07:42:45.619Z,57.50
2022-12-04T07:43:47.973Z,57.77
2022-12-04T07:44:49.848Z,58.60
2022-12-04T07:45:52.175Z,59.60
2022-12-04T07:46:53.988Z,60.72
2022-12-04T07:47:55.736Z,61.88
2022-12-04T07:49:00.127Z,63.09
2022-12-04T07:50:02.603Z,64.88
2022-12-04T07:51:08.122Z,65.72
2022-12-04T07:52:09.913Z,65.37
2022-12-04T07:53:11.723Z,64.49
2022-12-04T07:54:13.863Z,63.32
2022-12-04T07:55:20.121Z,62.35
2022-12-04T07:56:24.691Z,61.32
2022-12-04T07:57:28.383Z,60.48
2022-12-04T07:58:30.227Z,59.63
2022-12-04T07:59:32.035Z,58.76
2022-12-04T08:00:33.904Z,57.69
2022-12-04T08:01:35.749Z,57.80
2022-12-04T08:02:37.566Z,58.31
2022-12-04T08:03:47.108Z,59.37
2022-12-04T08:04:49.743Z,60.91
2022-12-04T08:05:51.526Z,61.65
2022-12-04T08:06:53.339Z,63.18
2022-12-04T08:07:55.162Z,64.96
2022-12-04T08:08:57.526Z,65.65
2022-12-04T08:09:59.356Z,65.33
2022-12-04T08:11:07.144Z,64.48
2022-12-04T08:12:08.907Z,63.21
2022-12-04T08:13:10.653Z,62.39
2022-12-04T08:14:12.451Z,61.40
2022-12-04T08:15:14.282Z,60.77
2022-12-04T08:16:16.296Z,59.87
2022-12-04T08:17:18.189Z,59.00
2022-12-04T08:18:19.987Z,57.79
2022-12-04T08:19:22.552Z,57.44
2022-12-04T08:20:24.385Z,57.85
2022-12-04T08:21:29.205Z,58.92
2022-12-04T08:22:30.931Z,60.46
2022-12-04T08:23:32.797Z,61.61
2022-12-04T08:24:34.559Z,62.49
2022-12-04T08:25:41.358Z,63.86
2022-12-04T08:26:43.117Z,65.52
2022-12-04T08:27:47.749Z,65.59
2022-12-04T08:28:53.716Z,64.80
2022-12-04T08:29:55.700Z,63.62
2022-12-04T08:31:04.556Z,62.41
2022-12-04T08:32:06.477Z,61.22
2022-12-04T08:33:08.258Z,60.51
2022-12-04T08:34:10.047Z,59.79
2022-12-04T08:35:11.834Z,58.93
2022-12-04T08:36:16.670Z,57.62
2022-12-04T08:37:18.514Z,57.40
2022-12-04T08:38:20.297Z,58.04
2022-12-04T08:39:22.106Z,58.74
2022-12-04T08:40:23.867Z,59.80
2022-12-04T08:41:27.283Z,60.93
2022-12-04T08:42:29.315Z,62.45
2022-12-04T08:43:31.719Z,63.94
2022-12-04T08:44:33.508Z,65.12
2022-12-04T08:45:35.423Z,65.36
2022-12-04T08:46:38.791Z,64.67
2022-12-04T08:47:40.635Z,63.64
2022-12-04T08:48:43.052Z,62.59
2022-12-04T08:49:44.814Z,61.67
2022-12-04T08:50:46.609Z,60.74
2022-12-04T08:51:48.392Z,60.25
2022-12-04T08:52:50.222Z,59.61
2022-12-04T08:53:57.404Z,58.30
2022-12-04T08:54:59.430Z,57.07
2022-12-04T08:56:01.438Z,57.14
2022-12-04T08:57:03.687Z,57.93
2022-12-04T08:58:05.865Z,59.14
2022-12-04T08:59:07.649Z,60.50
2022-12-04T09:00:09.728Z,61.56
2022-12-04T09:01:13.862Z,62.73
2022-12-04T09:02:16.700Z,64.58
2022-12-04T09:03:24.760Z,65.53
2022-12-04T09:04:29.449Z,65.41
2022-12-04T09:05:31.555Z,64.73
2022-12-04T09:06:33.513Z,63.44
2022-12-04T09:07:35.393Z,62.45
2022-12-04T09:08:38.248Z,61.31
2022-12-04T09:09:44.909Z,60.34
2022-12-04T09:10:49.680Z,59.62
2022-12-04T09:11:51.417Z,58.78
2022-12-04T09:12:53.159Z,57.63
2022-12-04T09:13:55.881Z,57.66
2022-12-04T09:14:57.734Z,58.42
2022-12-04T09:15:59.573Z,59.36
2022-12-04T09:17:01.424Z,60.38
2022-12-04T09:18:03.190Z,61.71
2022-12-04T09:19:05.261Z,63.20
2022-12-04T09:20:08.745Z,65.07
2022-12-04T09:21:14.766Z,65.80
2022-12-04T09:22:16.576Z,65.41
2022-12-04T09:23:18.323Z,64.52
2022-12-04T09:24:20.157Z,63.53
2022-12-04T09:25:22.094Z,62.35
2022-12-04T09:26:30.777Z,61.19
2022-12-04T09:27:37.582Z,60.20
2022-12-04T09:28:39.392Z,59.48
2022-12-04T09:29:41.171Z,58.40
2022-12-04T09:30:42.947Z,57.32
2022-12-04T09:31:44.856Z,57.46
2022-12-04T09:32:46.657Z,58.00
2022-12-04T09:33:48.698Z,58.90
2022-12-04T09:34:52.811Z,60.52
2022-12-04T09:35:55.229Z,61.73
2022-12-04T09:36:57.336Z,62.98
2022-12-04T09:37:59.322Z,64.72
2022-12-04T09:39:01.128Z,65.73
2022-12-04T09:40:05.064Z,65.60
2022-12-04T09:41:24.791Z,64.66
2022-12-04T09:42:46.646Z,63.32
2022-12-04T09:44:23.548Z,61.86
2022-12-04T09:45:27.202Z,60.55
2022-12-04T09:46:33.191Z,59.92
2022-12-04T09:47:42.795Z,59.06
2022-12-04T09:48:48.715Z,57.58
2022-12-04T09:50:03.156Z,57.21
2022-12-04T09:51:16.465Z,58.23
2022-12-04T09:52:52.993Z,59.11
2022-12-04T09:54:09.774Z,60.60
2022-12-04T09:55:30.571Z,61.63
2022-12-04T09:56:32.830Z,63.74
2022-12-04T09:58:02.685Z,65.40
2022-12-04T09:59:22.308Z,65.62
2022-12-04T10:00:24.413Z,64.46
2022-12-04T10:01:51.433Z,63.26
2022-12-04T10:03:03.716Z,61.93
2022-12-04T10:04:06.716Z,60.72
2022-12-04T10:05:39.671Z,59.94
2022-12-04T10:07:04.915Z,58.71
2022-12-04T10:08:22.456Z,57.33
2022-12-04T10:09:32.255Z,57.62
2022-12-04T10:10:43.083Z,58.82
2022-12-04T10:11:56.601Z,59.94
2022-12-04T10:13:16.365Z,60.86
2022-12-04T10:14:49.843Z,62.96
2022-12-04T10:16:24.110Z,64.92
2022-12-04T10:17:42.279Z,65.13
2022-12-04T10:19:06.855Z,64.08
2022-12-04T10:20:28.843Z,62.95
2022-12-04T10:21:40.024Z,61.47
2022-12-04T10:23:12.287Z,60.44
2022-12-04T10:24:40.528Z,59.54
2022-12-04T10:25:43.737Z,57.90
2022-12-04T10:26:48.459Z,57.27
2022-12-04T10:28:01.520Z,57.70
2022-12-04T10:29:08.439Z,58.86
2022-12-04T10:30:14.406Z,60.32
2022-12-04T10:31:16.425Z,61.50
2022-12-04T10:32:25.804Z,62.79
2022-12-04T10:33:41.460Z,64.76
2022-12-04T10:34:45.959Z,65.72
2022-12-04T10:35:52.717Z,65.38
2022-12-04T10:37:01.842Z,64.17
2022-12-04T10:38:25.828Z,62.91
2022-12-04T10:39:37.565Z,61.55
2022-12-04T10:40:52.248Z,60.48
2022-12-04T10:42:01.658Z,59.53
2022-12-04T10:43:11.483Z,58.36
2022-12-04T10:44:16.719Z,57.29
2022-12-04T10:45:20.105Z,57.70
2022-12-04T10:46:27.208Z,58.78
2022-12-04T10:47:29.133Z,60.03
2022-12-04T10:48:37.891Z,61.15
2022-12-04T10:49:39.831Z,62.47
2022-12-04T10:50:41.746Z,64.05
2022-12-04T10:51:46.220Z,65.23
2022-12-04T10:52:48.649Z,65.19
2022-12-04T10:53:51.353Z,64.31
2022-12-04T10:55:00.081Z,63.30
2022-12-04T10:56:23.552Z,62.12
2022-12-04T10:57:39.842Z,60.58
2022-12-04T10:58:41.895Z,59.71
2022-12-04T10:59:56.177Z,58.85
2022-12-04T11:01:07.015Z,57.29
2022-12-04T11:02:25.794Z,57.54
2022-12-04T11:03:29.695Z,58.54
2022-12-04T11:04:35.040Z,59.57
2022-12-04T11:05:46.091Z,60.79
2022-12-04T11:06:52.526Z,62.13
2022-12-04T11:07:56.207Z,63.74
2022-12-04T11:08:59.824Z,65.16
2022-12-04T11:10:17.584Z,65.36
2022-12-04T11:11:33.486Z,64.41
2022-12-04T11:12:35.309Z,63.12
2022-12-04T11:13:38.120Z,61.95
2022-12-04T11:14:44.032Z,61.07
2022-12-04T11:15:55.057Z,59.91
2022-12-04T11:17:06.457Z,59.06
2022-12-04T11:18:19.306Z,57.62
2022-12-04T11:19:27.823Z,57.21
2022-12-04T11:20:29.635Z,58.19
2022-12-04T11:21:32.743Z,59.51
2022-12-04T11:22:57.648Z,60.44
2022-12-04T11:23:59.545Z,61.97
2022-12-04T11:25:01.821Z,63.46
2022-12-04T11:26:06.177Z,65.05
2022-12-04T11:27:20.495Z,65.62
2022-12-04T11:28:44.547Z,64.99
2022-12-04T11:29:48.772Z,63.71
2022-12-04T11:30:57.691Z,62.42
2022-12-04T11:32:07.111Z,61.14
2022-12-04T11:33:23.746Z,60.16
2022-12-04T11:34:36.378Z,59.21
2022-12-04T11:35:38.240Z,57.65
2022-12-04T11:36:41.943Z,57.23
2022-12-04T11:37:55.573Z,57.63
2022-12-04T11:39:29.269Z,58.96
2022-12-04T11:40:31.264Z,60.45
2022-12-04T11:41:33.811Z,61.51
2022-12-04T11:42:35.538Z,62.63
2022-12-04T11:43:37.947Z,64.34
2022-12-04T11:44:40.348Z,65.28
2022-12-04T11:45:53.372Z,65.09
2022-12-04T11:46:58.698Z,64.14
2022-12-04T11:48:04.302Z,63.01
2022-12-04T11:49:06.076Z,62.06
2022-12-04T11:50:18.979Z,61.03
2022-12-04T11:51:37.533Z,59.94
2022-12-04T11:52:59.243Z,58.80
2022-12-04T11:54:13.672Z,57.22
2022-12-04T11:55:28.867Z,57.50
2022-12-04T11:56:40.024Z,58.57
2022-12-04T11:58:12.139Z,59.92
2022-12-04T11:59:44.471Z,61.60
2022-12-04T12:00:56.499Z,63.75
2022-12-04T12:02:36.060Z,65.31
2022-12-04T12:03:56.475Z,65.09
2022-12-04T12:05:29.728Z,63.84
2022-12-04T12:06:55.057Z,62.13
2022-12-04T12:08:21.182Z,60.54
2022-12-04T12:09:29.109Z,59.38
2022-12-04T12:10:53.607Z,57.89
2022-12-04T12:12:01.330Z,57.41
2022-12-04T12:13:21.171Z,58.33
2022-12-04T12:14:41.181Z,59.75
2022-12-04T12:16:04.772Z,61.31
2022-12-04T12:17:24.511Z,62.43
2022-12-04T12:18:56.864Z,64.30
2022-12-04T12:20:18.565Z,65.11
2022-12-04T12:21:33.786Z,64.04
2022-12-04T12:23:22.388Z,62.78
2022-12-04T12:24:32.211Z,61.13
2022-12-04T12:26:11.095Z,60.10
2022-12-04T12:27:55.528Z,58.22
2022-12-04T12:29:17.037Z,57.23
2022-12-04T12:30:21.621Z,58.23
2022-12-04T12:31:51.483Z,59.29
2022-12-04T12:33:04.884Z,60.70
2022-12-04T12:34:40.365Z,61.93
2022-12-04T12:36:07.965Z,64.59
2022-12-04T12:37:20.404Z,65.73
2022-12-04T12:38:28.121Z,65.15
2022-12-04T12:39:43.637Z,63.96
2022-12-04T12:40:54.819Z,62.51
2022-12-04T12:42:01.204Z,61.25
2022-12-04T12:43:11.473Z,60.18
2022-12-04T12:44:34.737Z,59.14
2022-12-04T12:45:58.915Z,57.38
2022-12-04T12:47:09.301Z,57.46
2022-12-04T12:48:25.294Z,58.42
2022-12-04T12:49:36.382Z,59.88
2022-12-04T12:50:47.604Z,61.21
2022-12-04T12:52:12.889Z,62.22
2022-12-04T12:53:24.831Z,64.51
2022-12-04T12:54:52.046Z,65.57
2022-12-04T12:55:58.239Z,64.92
2022-12-04T12:57:11.912Z,63.74
2022-12-04T12:58:29.990Z,62.34
2022-12-04T12:59:34.139Z,61.08
2022-12-04T13:00:46.781Z,59.98
2022-12-04T13:02:02.318Z,58.82
2022-12-04T13:03:28.116Z,57.24
2022-12-04T13:04:40.728Z,57.50
2022-12-04T13:05:51.979Z,58.49
2022-12-04T13:07:06.763Z,59.95
2022-12-04T13:08:25.837Z,61.26
2022-12-04T13:09:38.394Z,62.17
2022-12-04T13:11:06.005Z,64.12
2022-12-04T13:12:16.066Z,65.71
2022-12-04T13:13:27.383Z,65.29
2022-12-04T13:14:29.256Z,64.13
2022-12-04T13:15:50.731Z,62.94
2022-12-04T13:17:01.149Z,61.43
2022-12-04T13:18:07.539Z,60.29
2022-12-04T13:19:31.470Z,59.35
2022-12-04T13:20:44.486Z,57.68
2022-12-04T13:22:11.650Z,57.16
2022-12-04T13:23:43.003Z,58.23
2022-12-04T13:25:12.476Z,59.99
2022-12-04T13:26:47.781Z,61.46
2022-12-04T13:28:04.397Z,63.56
2022-12-04T13:29:38.298Z,65.20
2022-12-04T13:30:56.942Z,64.89
2022-12-04T13:32:40.653Z,63.37
2022-12-04T13:34:11.323Z,61.47
2022-12-04T13:36:02.012Z,60.18
2022-12-04T13:37:09.503Z,58.41
2022-12-04T13:38:31.561Z,57.08
2022-12-04T13:40:10.659Z,57.31
2022-12-04T13:41:20.008Z,58.66
2022-12-04T13:42:26.015Z,60.10
2022-12-04T13:43:35.139Z,61.27
2022-12-04T13:44:37.140Z,62.57
2022-12-04T13:45:40.691Z,64.35
2022-12-04T13:46:58.166Z,65.54
2022-12-04T13:48:03.257Z,65.20
2022-12-04T13:49:27.051Z,64.26
2022-12-04T13:50:32.144Z,62.57
2022-12-04T13:51:41.095Z,61.40
2022-12-04T13:52:43.010Z,60.30
2022-12-04T13:53:44.864Z,59.37
2022-12-04T13:54:58.576Z,58.10
2022-12-04T13:56:06.066Z,57.11
2022-12-04T13:57:12.690Z,57.60
2022-12-04T13:58:14.345Z,58.60
2022-12-04T13:59:28.328Z,59.59
2022-12-04T14:00:35.859Z,60.70
2022-12-04T14:01:41.180Z,61.87
2022-12-04T14:02:52.456Z,63.11
2022-12-04T14:03:57.447Z,65.08
2022-12-04T14:05:01.108Z,65.66
2022-12-04T14:06:20.561Z,65.15
2022-12-04T14:07:44.427Z,63.86
2022-12-04T14:08:46.545Z,62.32
2022-12-04T14:09:56.008Z,61.27
2022-12-04T14:11:07.127Z,60.26
2022-12-04T14:12:14.037Z,59.34
2022-12-04T14:13:24.599Z,57.89
2022-12-04T14:15:03.447Z,57.16
2022-12-04T14:16:17.293Z,58.40
2022-12-04T14:17:25.426Z,59.42
2022-12-04T14:18:31.137Z,60.66
2022-12-04T14:19:44.613Z,61.73
2022-12-04T14:21:00.310Z,62.39
2022-12-04T14:22:03.668Z,64.35
2022-12-04T14:23:26.254Z,65.53
2022-12-04T14:24:39.070Z,65.72
2022-12-04T14:25:41.121Z,64.61
2022-12-04T14:28:25.437Z,62.30
2022-12-04T14:29:32.943Z,61.11
2022-12-04T14:30:38.503Z,60.12
2022-12-04T14:31:41.811Z,59.02
2022-12-04T14:32:46.726Z,57.71
2022-12-04T14:33:56.089Z,57.27
2022-12-04T14:34:58.931Z,57.93
2022-12-04T14:36:15.397Z,59.01
2022-12-04T14:37:37.335Z,60.49
2022-12-04T14:38:40.080Z,61.67
2022-12-04T14:39:46.977Z,62.69
2022-12-04T14:40:53.684Z,64.71
2022-12-04T14:42:26.594Z,65.75
2022-12-04T14:43:38.195Z,65.30
2022-12-04T14:44:41.128Z,64.04
2022-12-04T14:45:58.232Z,63.06
2022-12-04T14:47:16.792Z,61.72